sensor_id;sensor_type;location;lat;lon;timestamp;pressure;altitude;pressure_sealevel;temperature;humidity
31483;BME280;18103;52.246;8.052;2023-03-13T00:04:02;99150.59;;;8.92;80.86
31483;BME280;18103;52.246;8.052;2023-03-13T00:06:33;99155.97;;;9.00;80.29
31483;BME280;18103;52.246;8.052;2023-03-13T00:09:03;99143.94;;;8.98;80.73
31483;BME280;18103;52.246;8.052;2023-03-13T00:11:29;99145.75;;;8.97;80.53
31483;BME280;18103;52.246;8.052;2023-03-13T00:14:01;99140.47;;;9.07;80.10
31483;BME280;18103;52.246;8.052;2023-03-13T00:16:27;99140.59;;;9.05;80.05
31483;BME280;18103;52.246;8.052;2023-03-13T00:18:56;99136.88;;;9.08;80.00
31483;BME280;18103;52.246;8.052;2023-03-13T00:21:24;99140.91;;;9.02;80.57
31483;BME280;18103;52.246;8.052;2023-03-13T00:23:50;99136.88;;;9.08;79.82
31483;BME280;18103;52.246;8.052;2023-03-13T00:26:21;99128.25;;;9.06;80.10
31483;BME280;18103;52.246;8.052;2023-03-13T00:28:47;99123.00;;;9.06;80.26
31483;BME280;18103;52.246;8.052;2023-03-13T00:31:16;99125.63;;;9.06;79.99
31483;BME280;18103;52.246;8.052;2023-03-13T00:33:47;99116.34;;;9.12;79.97
31483;BME280;18103;52.246;8.052;2023-03-13T00:36:20;99118.44;;;9.08;79.88
31483;BME280;18103;52.246;8.052;2023-03-13T00:38:46;99113.84;;;9.10;79.68
31483;BME280;18103;52.246;8.052;2023-03-13T00:41:17;99116.78;;;9.07;80.03
31483;BME280;18103;52.246;8.052;2023-03-13T00:43:44;99109.97;;;9.04;80.20
31483;BME280;18103;52.246;8.052;2023-03-13T00:46:14;99108.44;;;9.12;79.97
31483;BME280;18103;52.246;8.052;2023-03-13T00:48:39;99098.75;;;9.12;79.82
31483;BME280;18103;52.246;8.052;2023-03-13T00:51:05;99096.69;;;9.06;80.42
31483;BME280;18103;52.246;8.052;2023-03-13T00:53:34;99094.31;;;9.13;79.97
31483;BME280;18103;52.246;8.052;2023-03-13T00:56:04;99088.63;;;9.07;80.53
31483;BME280;18103;52.246;8.052;2023-03-13T00:58:33;99080.19;;;9.14;80.39
31483;BME280;18103;52.246;8.052;2023-03-13T01:01:13;99086.97;;;9.06;80.50
31483;BME280;18103;52.246;8.052;2023-03-13T01:03:41;99077.16;;;9.08;80.47
31483;BME280;18103;52.246;8.052;2023-03-13T01:06:10;99083.06;;;9.11;80.71
31483;BME280;18103;52.246;8.052;2023-03-13T01:08:36;99071.06;;;9.08;81.09
31483;BME280;18103;52.246;8.052;2023-03-13T01:11:08;99070.34;;;9.06;81.32
31483;BME280;18103;52.246;8.052;2023-03-13T01:13:36;99062.31;;;9.07;81.82
31483;BME280;18103;52.246;8.052;2023-03-13T01:16:07;99058.00;;;9.06;81.84
31483;BME280;18103;52.246;8.052;2023-03-13T01:18:33;99061.25;;;8.90;82.81
31483;BME280;18103;52.246;8.052;2023-03-13T01:20:59;99050.59;;;8.92;83.20
31483;BME280;18103;52.246;8.052;2023-03-13T01:23:25;99037.41;;;9.02;82.85
31483;BME280;18103;52.246;8.052;2023-03-13T01:25:53;99039.63;;;8.97;83.58
31483;BME280;18103;52.246;8.052;2023-03-13T01:28:19;99036.75;;;8.90;83.92
31483;BME280;18103;52.246;8.052;2023-03-13T01:30:44;99033.56;;;8.86;84.56
31483;BME280;18103;52.246;8.052;2023-03-13T01:33:10;99027.59;;;8.94;84.30
31483;BME280;18103;52.246;8.052;2023-03-13T01:35:35;99017.34;;;8.91;84.59
31483;BME280;18103;52.246;8.052;2023-03-13T01:38:00;99009.44;;;8.91;84.71
31483;BME280;18103;52.246;8.052;2023-03-13T01:40:26;99003.09;;;8.84;85.42
31483;BME280;18103;52.246;8.052;2023-03-13T01:42:56;98989.56;;;8.79;85.52
31483;BME280;18103;52.246;8.052;2023-03-13T01:48:17;98970.03;;;8.71;86.13
31483;BME280;18103;52.246;8.052;2023-03-13T01:50:45;98972.66;;;8.71;86.32
31483;BME280;18103;52.246;8.052;2023-03-13T01:53:13;98959.66;;;8.70;86.56
31483;BME280;18103;52.246;8.052;2023-03-13T01:55:38;98945.53;;;8.71;86.87
31483;BME280;18103;52.246;8.052;2023-03-13T01:58:06;98938.75;;;8.68;87.04
31483;BME280;18103;52.246;8.052;2023-03-13T02:00:35;98937.78;;;8.69;87.50
31483;BME280;18103;52.246;8.052;2023-03-13T02:03:10;98927.38;;;8.78;86.85
31483;BME280;18103;52.246;8.052;2023-03-13T02:05:37;98916.44;;;8.72;87.04
31483;BME280;18103;52.246;8.052;2023-03-13T02:08:06;98913.81;;;8.72;87.46
31483;BME280;18103;52.246;8.052;2023-03-13T02:10:38;98900.38;;;8.76;87.70
31483;BME280;18103;52.246;8.052;2023-03-13T02:13:06;98897.38;;;8.70;87.67
31483;BME280;18103;52.246;8.052;2023-03-13T02:15:33;98882.56;;;8.69;87.62
31483;BME280;18103;52.246;8.052;2023-03-13T02:17:59;98876.88;;;8.64;88.04
31483;BME280;18103;52.246;8.052;2023-03-13T02:20:24;98877.03;;;8.63;87.86
31483;BME280;18103;52.246;8.052;2023-03-13T02:23:18;98863.31;;;8.69;88.04
31483;BME280;18103;52.246;8.052;2023-03-13T02:25:47;98854.72;;;8.67;88.03
31483;BME280;18103;52.246;8.052;2023-03-13T02:28:23;98834.09;;;8.72;87.71
31483;BME280;18103;52.246;8.052;2023-03-13T02:30:53;98834.38;;;8.69;88.18
31483;BME280;18103;52.246;8.052;2023-03-13T02:36:41;98819.53;;;8.78;87.84
31483;BME280;18103;52.246;8.052;2023-03-13T02:39:12;98806.56;;;8.66;88.59
31483;BME280;18103;52.246;8.052;2023-03-13T02:41:41;98794.78;;;8.70;88.56
31483;BME280;18103;52.246;8.052;2023-03-13T02:44:07;98799.28;;;8.78;87.76
31483;BME280;18103;52.246;8.052;2023-03-13T02:46:43;98780.22;;;8.76;88.27
31483;BME280;18103;52.246;8.052;2023-03-13T02:49:35;98777.03;;;8.72;88.63
31483;BME280;18103;52.246;8.052;2023-03-13T02:52:17;98768.47;;;8.70;89.13
31483;BME280;18103;52.246;8.052;2023-03-13T02:54:44;98765.16;;;8.68;89.76
31483;BME280;18103;52.246;8.052;2023-03-13T02:57:12;98765.16;;;8.68;90.17
31483;BME280;18103;52.246;8.052;2023-03-13T02:59:40;98760.50;;;8.62;90.93
31483;BME280;18103;52.246;8.052;2023-03-13T03:02:05;98760.03;;;8.67;91.23
31483;BME280;18103;52.246;8.052;2023-03-13T03:04:30;98751.63;;;8.63;91.01
31483;BME280;18103;52.246;8.052;2023-03-13T03:06:58;98755.53;;;8.59;91.72
31483;BME280;18103;52.246;8.052;2023-03-13T03:09:23;98746.50;;;8.62;91.66
31483;BME280;18103;52.246;8.052;2023-03-13T03:11:49;98743.34;;;8.58;91.83
31483;BME280;18103;52.246;8.052;2023-03-13T03:14:17;98740.50;;;8.69;91.98
31483;BME280;18103;52.246;8.052;2023-03-13T03:16:43;98727.50;;;8.68;92.17
31483;BME280;18103;52.246;8.052;2023-03-13T03:19:08;98716.59;;;8.63;92.09
31483;BME280;18103;52.246;8.052;2023-03-13T03:21:35;98723.38;;;8.65;92.65
31483;BME280;18103;52.246;8.052;2023-03-13T03:24:03;98714.34;;;8.68;92.39
31483;BME280;18103;52.246;8.052;2023-03-13T03:26:29;98702.72;;;8.70;92.78
31483;BME280;18103;52.246;8.052;2023-03-13T03:28:54;98695.50;;;8.72;92.81
31483;BME280;18103;52.246;8.052;2023-03-13T03:31:24;98695.19;;;8.76;92.66
31483;BME280;18103;52.246;8.052;2023-03-13T03:33:50;98688.44;;;8.73;92.91
31483;BME280;18103;52.246;8.052;2023-03-13T03:36:19;98693.25;;;8.78;93.00
31483;BME280;18103;52.246;8.052;2023-03-13T03:38:48;98681.59;;;8.80;92.94
31483;BME280;18103;52.246;8.052;2023-03-13T03:41:14;98684.31;;;8.88;92.76
31483;BME280;18103;52.246;8.052;2023-03-13T03:43:40;98670.84;;;8.92;93.02
31483;BME280;18103;52.246;8.052;2023-03-13T03:46:06;98672.94;;;8.88;93.11
31483;BME280;18103;52.246;8.052;2023-03-13T03:48:31;98680.41;;;8.93;93.41
31483;BME280;18103;52.246;8.052;2023-03-13T03:50:57;98664.06;;;8.89;93.40
31483;BME280;18103;52.246;8.052;2023-03-13T03:53:23;98669.19;;;8.90;93.81
31483;BME280;18103;52.246;8.052;2023-03-13T03:55:49;98660.53;;;8.98;93.34
31483;BME280;18103;52.246;8.052;2023-03-13T03:58:14;98642.72;;;8.92;93.56
31483;BME280;18103;52.246;8.052;2023-03-13T04:00:47;98638.50;;;8.99;93.53
31483;BME280;18103;52.246;8.052;2023-03-13T04:03:13;98641.28;;;8.98;93.85
31483;BME280;18103;52.246;8.052;2023-03-13T04:05:39;98632.41;;;8.99;93.74
31483;BME280;18103;52.246;8.052;2023-03-13T04:08:05;98617.75;;;8.96;93.85
31483;BME280;18103;52.246;8.052;2023-03-13T04:10:31;98620.22;;;8.98;93.95
31483;BME280;18103;52.246;8.052;2023-03-13T04:12:56;98613.53;;;9.03;93.96
31483;BME280;18103;52.246;8.052;2023-03-13T04:15:22;98614.22;;;9.05;94.22
31483;BME280;18103;52.246;8.052;2023-03-13T04:17:48;98618.03;;;9.11;93.99
31483;BME280;18103;52.246;8.052;2023-03-13T04:20:15;98625.78;;;9.13;93.84
31483;BME280;18103;52.246;8.052;2023-03-13T04:22:41;98615.91;;;9.15;94.12
31483;BME280;18103;52.246;8.052;2023-03-13T04:25:09;98612.13;;;9.17;94.17
31483;BME280;18103;52.246;8.052;2023-03-13T04:27:35;98635.38;;;9.22;94.01
31483;BME280;18103;52.246;8.052;2023-03-13T04:30:02;98616.75;;;9.15;94.08
31483;BME280;18103;52.246;8.052;2023-03-13T04:32:28;98621.69;;;9.18;94.46
31483;BME280;18103;52.246;8.052;2023-03-13T04:34:54;98623.19;;;9.21;94.19
31483;BME280;18103;52.246;8.052;2023-03-13T04:37:19;98600.31;;;9.21;94.58
31483;BME280;18103;52.246;8.052;2023-03-13T04:39:47;98618.09;;;9.19;94.82
31483;BME280;18103;52.246;8.052;2023-03-13T04:42:12;98599.19;;;9.24;94.84
31483;BME280;18103;52.246;8.052;2023-03-13T04:44:41;98579.78;;;9.25;94.92
31483;BME280;18103;52.246;8.052;2023-03-13T04:47:06;98600.38;;;9.30;94.90
31483;BME280;18103;52.246;8.052;2023-03-13T04:49:33;98593.28;;;9.30;94.89
31483;BME280;18103;52.246;8.052;2023-03-13T04:52:01;98591.84;;;9.36;94.92
31483;BME280;18103;52.246;8.052;2023-03-13T04:54:27;98574.56;;;9.33;94.88
31483;BME280;18103;52.246;8.052;2023-03-13T04:56:52;98583.13;;;9.35;94.97
31483;BME280;18103;52.246;8.052;2023-03-13T04:59:20;98570.78;;;9.36;95.05
31483;BME280;18103;52.246;8.052;2023-03-13T05:01:48;98564.72;;;9.44;95.07
31483;BME280;18103;52.246;8.052;2023-03-13T05:04:13;98571.97;;;9.41;95.24
31483;BME280;18103;52.246;8.052;2023-03-13T05:06:41;98565.53;;;9.44;95.58
31483;BME280;18103;52.246;8.052;2023-03-13T05:09:09;98577.91;;;9.44;95.21
31483;BME280;18103;52.246;8.052;2023-03-13T05:11:34;98568.19;;;9.44;95.27
31483;BME280;18103;52.246;8.052;2023-03-13T05:14:00;98563.75;;;9.45;95.31
31483;BME280;18103;52.246;8.052;2023-03-13T05:16:25;98576.28;;;9.51;95.50
31483;BME280;18103;52.246;8.052;2023-03-13T05:18:51;98560.63;;;9.49;95.38
31483;BME280;18103;52.246;8.052;2023-03-13T05:21:16;98554.28;;;9.60;95.52
31483;BME280;18103;52.246;8.052;2023-03-13T05:23:42;98549.47;;;9.55;95.60
31483;BME280;18103;52.246;8.052;2023-03-13T05:26:10;98558.69;;;9.59;95.80
31483;BME280;18103;52.246;8.052;2023-03-13T05:28:36;98546.03;;;9.63;95.45
31483;BME280;18103;52.246;8.052;2023-03-13T05:31:01;98544.06;;;9.57;95.78
31483;BME280;18103;52.246;8.052;2023-03-13T05:33:27;98540.44;;;9.66;95.76
31483;BME280;18103;52.246;8.052;2023-03-13T05:35:52;98537.81;;;9.66;95.86
31483;BME280;18103;52.246;8.052;2023-03-13T05:38:17;98524.47;;;9.68;95.80
31483;BME280;18103;52.246;8.052;2023-03-13T05:40:43;98523.03;;;9.73;95.97
31483;BME280;18103;52.246;8.052;2023-03-13T05:43:10;98526.97;;;9.77;95.57
31483;BME280;18103;52.246;8.052;2023-03-13T05:45:36;98514.31;;;9.73;95.97
31483;BME280;18103;52.246;8.052;2023-03-13T05:48:01;98511.69;;;9.81;96.27
31483;BME280;18103;52.246;8.052;2023-03-13T05:50:26;98507.75;;;9.85;95.99
31483;BME280;18103;52.246;8.052;2023-03-13T05:52:52;98507.06;;;9.83;95.82
31483;BME280;18103;52.246;8.052;2023-03-13T05:55:18;98484.50;;;9.89;95.81
31483;BME280;18103;52.246;8.052;2023-03-13T05:57:47;98501.50;;;9.94;95.95
31483;BME280;18103;52.246;8.052;2023-03-13T06:00:16;98504.13;;;9.94;95.56
31483;BME280;18103;52.246;8.052;2023-03-13T06:02:42;98511.53;;;9.91;96.01
31483;BME280;18103;52.246;8.052;2023-03-13T06:05:08;98516.81;;;9.91;96.19
31483;BME280;18103;52.246;8.052;2023-03-13T06:07:34;98518.16;;;9.95;95.97
31483;BME280;18103;52.246;8.052;2023-03-13T06:10:00;98519.63;;;9.98;95.71
31483;BME280;18103;52.246;8.052;2023-03-13T06:12:25;98510.72;;;10.07;95.99
31483;BME280;18103;52.246;8.052;2023-03-13T06:14:53;98526.22;;;10.10;95.94
31483;BME280;18103;52.246;8.052;2023-03-13T06:17:19;98512.06;;;10.11;96.10
31483;BME280;18103;52.246;8.052;2023-03-13T06:19:47;98515.38;;;10.13;95.80
31483;BME280;18103;52.246;8.052;2023-03-13T06:22:16;98506.28;;;10.24;95.88
31483;BME280;18103;52.246;8.052;2023-03-13T06:24:44;98502.19;;;10.21;95.89
31483;BME280;18103;52.246;8.052;2023-03-13T06:27:10;98495.75;;;10.24;95.98
31483;BME280;18103;52.246;8.052;2023-03-13T06:29:38;98490.00;;;10.28;96.05
31483;BME280;18103;52.246;8.052;2023-03-13T06:32:04;98492.97;;;10.25;95.68
31483;BME280;18103;52.246;8.052;2023-03-13T06:34:32;98496.28;;;10.36;95.96
31483;BME280;18103;52.246;8.052;2023-03-13T06:37:02;98503.22;;;10.45;95.97
31483;BME280;18103;52.246;8.052;2023-03-13T06:39:29;98503.22;;;10.45;95.80
31483;BME280;18103;52.246;8.052;2023-03-13T06:41:55;98510.97;;;10.47;96.10
31483;BME280;18103;52.246;8.052;2023-03-13T06:44:20;98494.47;;;10.53;95.84
31483;BME280;18103;52.246;8.052;2023-03-13T06:46:46;98500.25;;;10.56;95.83
31483;BME280;18103;52.246;8.052;2023-03-13T06:49:11;98502.72;;;10.58;95.55
31483;BME280;18103;52.246;8.052;2023-03-13T06:51:36;98503.03;;;10.63;95.81
31483;BME280;18103;52.246;8.052;2023-03-13T06:54:02;98495.94;;;10.64;95.81
31483;BME280;18103;52.246;8.052;2023-03-13T06:56:30;98482.25;;;10.68;95.62
31483;BME280;18103;52.246;8.052;2023-03-13T06:58:58;98483.91;;;10.69;95.43
31483;BME280;18103;52.246;8.052;2023-03-13T07:01:25;98493.13;;;10.73;95.78
31483;BME280;18103;52.246;8.052;2023-03-13T07:03:50;98487.50;;;10.76;95.33
31483;BME280;18103;52.246;8.052;2023-03-13T07:06:16;98490.16;;;10.76;95.62
31483;BME280;18103;52.246;8.052;2023-03-13T07:08:42;98491.63;;;10.79;95.16
31483;BME280;18103;52.246;8.052;2023-03-13T07:11:14;98496.75;;;10.81;95.43
31483;BME280;18103;52.246;8.052;2023-03-13T07:13:42;98494.91;;;10.81;95.27
31483;BME280;18103;52.246;8.052;2023-03-13T07:16:09;98487.50;;;10.85;95.39
31483;BME280;18103;52.246;8.052;2023-03-13T07:18:40;98497.19;;;10.92;95.08
31483;BME280;18103;52.246;8.052;2023-03-13T07:21:06;98488.13;;;10.95;95.16
31483;BME280;18103;52.246;8.052;2023-03-13T07:23:34;98496.72;;;10.97;94.99
31483;BME280;18103;52.246;8.052;2023-03-13T07:26:06;98500.50;;;11.03;94.91
31483;BME280;18103;52.246;8.052;2023-03-13T07:28:34;98498.03;;;11.01;94.78
31483;BME280;18103;52.246;8.052;2023-03-13T07:31:10;98493.56;;;11.02;94.80
31483;BME280;18103;52.246;8.052;2023-03-13T07:33:36;98494.88;;;11.06;94.68
31483;BME280;18103;52.246;8.052;2023-03-13T07:36:02;98496.50;;;11.15;94.06
31483;BME280;18103;52.246;8.052;2023-03-13T07:38:28;98490.38;;;11.15;94.25
31483;BME280;18103;52.246;8.052;2023-03-13T07:40:55;98485.25;;;11.21;94.01
31483;BME280;18103;52.246;8.052;2023-03-13T07:43:24;98481.97;;;11.19;94.12
31483;BME280;18103;52.246;8.052;2023-03-13T07:48:23;98475.78;;;11.35;93.07
31483;BME280;18103;52.246;8.052;2023-03-13T07:50:48;98462.56;;;11.35;93.25
31483;BME280;18103;52.246;8.052;2023-03-13T07:53:14;98466.38;;;11.33;93.12
31483;BME280;18103;52.246;8.052;2023-03-13T07:56:00;98457.28;;;11.35;93.16
31483;BME280;18103;52.246;8.052;2023-03-13T07:58:32;98461.59;;;11.36;92.44
31483;BME280;18103;52.246;8.052;2023-03-13T08:01:01;98460.06;;;11.42;92.22
31483;BME280;18103;52.246;8.052;2023-03-13T08:03:31;98468.00;;;11.42;92.48
31483;BME280;18103;52.246;8.052;2023-03-13T08:06:08;98445.22;;;11.41;92.15
31483;BME280;18103;52.246;8.052;2023-03-13T08:08:34;98453.91;;;11.50;91.53
31483;BME280;18103;52.246;8.052;2023-03-13T08:11:05;98460.22;;;11.49;91.66
31483;BME280;18103;52.246;8.052;2023-03-13T08:13:36;98463.84;;;11.47;91.59
31483;BME280;18103;52.246;8.052;2023-03-13T08:16:09;98449.91;;;11.54;91.42
31483;BME280;18103;52.246;8.052;2023-03-13T08:18:37;98464.44;;;11.58;90.95
31483;BME280;18103;52.246;8.052;2023-03-13T08:21:05;98449.91;;;11.54;90.82
31483;BME280;18103;52.246;8.052;2023-03-13T08:23:31;98449.13;;;11.53;91.25
31483;BME280;18103;52.246;8.052;2023-03-13T08:26:04;98457.50;;;11.57;90.55
31483;BME280;18103;52.246;8.052;2023-03-13T08:28:30;98447.59;;;11.59;90.58
31483;BME280;18103;52.246;8.052;2023-03-13T08:30:58;98459.25;;;11.73;90.04
31483;BME280;18103;52.246;8.052;2023-03-13T08:33:23;98460.28;;;11.63;90.59
31483;BME280;18103;52.246;8.052;2023-03-13T08:35:49;98451.88;;;11.60;90.58
31483;BME280;18103;52.246;8.052;2023-03-13T08:38:14;98442.09;;;11.69;90.28
31483;BME280;18103;52.246;8.052;2023-03-13T08:40:42;98447.81;;;11.72;89.83
31483;BME280;18103;52.246;8.052;2023-03-13T08:43:10;98441.72;;;11.72;90.09
31483;BME280;18103;52.246;8.052;2023-03-13T08:45:35;98463.06;;;11.70;89.86
31483;BME280;18103;52.246;8.052;2023-03-13T08:48:01;98463.19;;;11.77;90.04
31483;BME280;18103;52.246;8.052;2023-03-13T08:50:28;98455.69;;;11.80;89.99
31483;BME280;18103;52.246;8.052;2023-03-13T08:52:54;98451.34;;;11.88;89.01
31483;BME280;18103;52.246;8.052;2023-03-13T08:55:19;98458.03;;;11.84;89.28
31483;BME280;18103;52.246;8.052;2023-03-13T08:57:44;98452.25;;;11.80;89.91
31483;BME280;18103;52.246;8.052;2023-03-13T09:00:10;98457.19;;;11.83;89.33
31483;BME280;18103;52.246;8.052;2023-03-13T09:02:37;98459.19;;;11.81;89.82
31483;BME280;18103;52.246;8.052;2023-03-13T09:05:03;98455.47;;;11.90;89.20
31483;BME280;18103;52.246;8.052;2023-03-13T09:07:30;98444.06;;;11.98;88.80
31483;BME280;18103;52.246;8.052;2023-03-13T09:09:56;98456.94;;;11.93;88.82
31483;BME280;18103;52.246;8.052;2023-03-13T09:12:21;98443.41;;;11.96;88.84
31483;BME280;18103;52.246;8.052;2023-03-13T09:14:54;98467.50;;;12.01;88.54
31483;BME280;18103;52.246;8.052;2023-03-13T09:17:21;98455.94;;;12.02;88.58
31483;BME280;18103;52.246;8.052;2023-03-13T09:19:50;98440.69;;;12.04;88.49
31483;BME280;18103;52.246;8.052;2023-03-13T09:22:16;98448.19;;;12.01;88.55
31483;BME280;18103;52.246;8.052;2023-03-13T09:24:41;98440.94;;;12.18;87.44
31483;BME280;18103;52.246;8.052;2023-03-13T09:27:07;98441.28;;;12.14;87.52
31483;BME280;18103;52.246;8.052;2023-03-13T09:29:32;98429.69;;;12.15;87.79
31483;BME280;18103;52.246;8.052;2023-03-13T09:32:04;98439.59;;;12.22;87.99
31483;BME280;18103;52.246;8.052;2023-03-13T09:34:29;98427.66;;;12.26;87.66
31483;BME280;18103;52.246;8.052;2023-03-13T09:36:56;98435.22;;;12.29;87.12
31483;BME280;18103;52.246;8.052;2023-03-13T09:39:21;98436.94;;;12.37;86.91
31483;BME280;18103;52.246;8.052;2023-03-13T09:42:37;98423.19;;;12.41;87.35
31483;BME280;18103;52.246;8.052;2023-03-13T09:44:39;98415.09;;;12.58;86.75
31483;BME280;18103;52.246;8.052;2023-03-13T09:47:17;98416.38;;;12.62;86.33
31483;BME280;18103;52.246;8.052;2023-03-13T09:49:56;98405.69;;;12.70;86.20
31483;BME280;18103;52.246;8.052;2023-03-13T09:52:38;98406.88;;;12.82;85.78
31483;BME280;18103;52.246;8.052;2023-03-13T09:55:18;98418.75;;;12.87;85.94
31483;BME280;18103;52.246;8.052;2023-03-13T09:57:54;98411.38;;;12.97;84.59
31483;BME280;18103;52.246;8.052;2023-03-13T10:00:23;98415.44;;;13.14;85.13
31483;BME280;18103;52.246;8.052;2023-03-13T10:03:01;98413.59;;;13.15;84.16
31483;BME280;18103;52.246;8.052;2023-03-13T10:05:30;98415.34;;;13.08;83.88
31483;BME280;18103;52.246;8.052;2023-03-13T10:08:01;98405.66;;;13.15;84.05
31483;BME280;18103;52.246;8.052;2023-03-13T10:13:35;98425.84;;;13.31;83.60
31483;BME280;18103;52.246;8.052;2023-03-13T10:16:06;98396.41;;;13.41;82.97
31483;BME280;18103;52.246;8.052;2023-03-13T10:18:34;98400.47;;;13.58;82.08
31483;BME280;18103;52.246;8.052;2023-03-13T10:21:13;98403.94;;;13.59;82.11
31483;BME280;18103;52.246;8.052;2023-03-13T10:23:54;98400.91;;;13.62;81.85
31483;BME280;18103;52.246;8.052;2023-03-13T10:26:32;98413.03;;;13.49;81.72
31483;BME280;18103;52.246;8.052;2023-03-13T10:31:48;98396.19;;;13.57;81.75
31483;BME280;18103;52.246;8.052;2023-03-13T10:34:17;98398.06;;;13.63;81.92
31483;BME280;18103;52.246;8.052;2023-03-13T10:36:47;98384.88;;;13.70;81.21
31483;BME280;18103;52.246;8.052;2023-03-13T10:39:18;98385.97;;;13.76;80.94
31483;BME280;18103;52.246;8.052;2023-03-13T10:41:45;98390.63;;;13.95;80.65
31483;BME280;18103;52.246;8.052;2023-03-13T10:44:28;98377.97;;;14.19;80.06
31483;BME280;18103;52.246;8.052;2023-03-13T10:46:59;98373.44;;;14.48;78.62
31483;BME280;18103;52.246;8.052;2023-03-13T10:49:27;98361.06;;;14.55;79.03
31483;BME280;18103;52.246;8.052;2023-03-13T10:52:01;98369.63;;;14.57;77.06
31483;BME280;18103;52.246;8.052;2023-03-13T10:54:31;98359.78;;;14.79;77.09
31483;BME280;18103;52.246;8.052;2023-03-13T10:59:41;98358.13;;;14.78;74.88
31483;BME280;18103;52.246;8.052;2023-03-13T11:02:24;98365.50;;;14.83;73.96
31483;BME280;18103;52.246;8.052;2023-03-13T11:04:50;98347.53;;;14.85;73.94
31483;BME280;18103;52.246;8.052;2023-03-13T11:07:24;98362.84;;;14.83;72.87
31483;BME280;18103;52.246;8.052;2023-03-13T11:10:16;98349.13;;;14.73;73.59
31483;BME280;18103;52.246;8.052;2023-03-13T11:12:46;98352.91;;;14.57;74.23
31483;BME280;18103;52.246;8.052;2023-03-13T11:15:15;98343.88;;;14.51;73.82
31483;BME280;18103;52.246;8.052;2023-03-13T11:17:41;98348.16;;;14.52;74.21
31483;BME280;18103;52.246;8.052;2023-03-13T11:20:38;98349.41;;;14.56;74.86
31483;BME280;18103;52.246;8.052;2023-03-13T11:23:42;98354.38;;;14.66;74.06
31483;BME280;18103;52.246;8.052;2023-03-13T11:26:19;98344.41;;;14.68;73.44
31483;BME280;18103;52.246;8.052;2023-03-13T11:31:49;98337.56;;;14.59;74.34
31483;BME280;18103;52.246;8.052;2023-03-13T11:34:37;98332.78;;;14.76;74.55
31483;BME280;18103;52.246;8.052;2023-03-13T11:37:12;98336.56;;;15.08;72.54
31483;BME280;18103;52.246;8.052;2023-03-13T11:48:45;98315.28;;;14.95;72.23
31483;BME280;18103;52.246;8.052;2023-03-13T12:00:06;98298.34;;;14.96;70.79
31483;BME280;18103;52.246;8.052;2023-03-13T12:02:43;98299.34;;;14.95;70.45
31483;BME280;18103;52.246;8.052;2023-03-13T12:05:15;98286.03;;;14.88;70.83
31483;BME280;18103;52.246;8.052;2023-03-13T12:10:15;98274.63;;;14.94;70.34
31483;BME280;18103;52.246;8.052;2023-03-13T12:15:54;98266.88;;;14.99;70.66
31483;BME280;18103;52.246;8.052;2023-03-13T12:18:22;98267.47;;;14.95;70.18
31483;BME280;18103;52.246;8.052;2023-03-13T12:21:03;98268.69;;;14.92;70.53
31483;BME280;18103;52.246;8.052;2023-03-13T12:26:12;98257.50;;;15.17;69.32
31483;BME280;18103;52.246;8.052;2023-03-13T12:33:57;98247.09;;;15.15;70.03
31483;BME280;18103;52.246;8.052;2023-03-13T12:36:32;98247.09;;;15.15;69.49
31483;BME280;18103;52.246;8.052;2023-03-13T12:39:39;98229.91;;;15.25;68.71
31483;BME280;18103;52.246;8.052;2023-03-13T12:44:43;98223.56;;;15.52;68.12
31483;BME280;18103;52.246;8.052;2023-03-13T12:58:00;98200.44;;;15.60;66.20
31483;BME280;18103;52.246;8.052;2023-03-13T13:00:30;98203.94;;;15.53;66.84
31483;BME280;18103;52.246;8.052;2023-03-13T13:03:09;98196.78;;;15.61;66.90
31483;BME280;18103;52.246;8.052;2023-03-13T13:06:17;98187.56;;;15.83;66.54
31483;BME280;18103;52.246;8.052;2023-03-13T13:09:02;98191.84;;;15.71;66.60
31483;BME280;18103;52.246;8.052;2023-03-13T13:16:47;98184.91;;;15.50;66.27
31483;BME280;18103;52.246;8.052;2023-03-13T13:24:53;98177.53;;;15.65;64.55
31483;BME280;18103;52.246;8.052;2023-03-13T13:29:59;98170.78;;;15.76;65.47
31483;BME280;18103;52.246;8.052;2023-03-13T13:32:42;98177.94;;;15.69;65.96
31483;BME280;18103;52.246;8.052;2023-03-13T13:37:37;98175.03;;;15.97;65.71
31483;BME280;18103;52.246;8.052;2023-03-13T13:42:53;98165.03;;;15.93;64.29
31483;BME280;18103;52.246;8.052;2023-03-13T13:45:30;98165.41;;;15.96;63.56
31483;BME280;18103;52.246;8.052;2023-03-13T13:48:24;98155.97;;;16.07;63.12
31483;BME280;18103;52.246;8.052;2023-03-13T13:51:24;98166.59;;;16.20;62.74
31483;BME280;18103;52.246;8.052;2023-03-13T13:53:51;98167.84;;;16.11;62.52
31483;BME280;18103;52.246;8.052;2023-03-13T13:58:59;98161.50;;;16.12;63.07
31483;BME280;18103;52.246;8.052;2023-03-13T14:01:26;98159.50;;;16.46;63.81
31483;BME280;18103;52.246;8.052;2023-03-13T14:04:03;98145.84;;;16.29;62.93
31483;BME280;18103;52.246;8.052;2023-03-13T14:06:33;98177.22;;;16.20;63.39
31483;BME280;18103;52.246;8.052;2023-03-13T14:09:15;98161.81;;;16.36;63.31
31483;BME280;18103;52.246;8.052;2023-03-13T14:11:46;98174.34;;;16.29;62.56
31483;BME280;18103;52.246;8.052;2023-03-13T14:14:19;98157.06;;;16.38;62.21
31483;BME280;18103;52.246;8.052;2023-03-13T14:16:53;98147.13;;;16.20;61.01
31483;BME280;18103;52.246;8.052;2023-03-13T14:22:06;98147.53;;;16.17;60.39
31483;BME280;18103;52.246;8.052;2023-03-13T14:24:33;98120.66;;;16.32;59.09
31483;BME280;18103;52.246;8.052;2023-03-13T14:27:01;98115.84;;;16.47;59.00
31483;BME280;18103;52.246;8.052;2023-03-13T14:29:29;98144.19;;;16.35;57.99
31483;BME280;18103;52.246;8.052;2023-03-13T14:31:57;98125.41;;;16.23;59.08
31483;BME280;18103;52.246;8.052;2023-03-13T14:34:26;98111.50;;;16.14;59.44
31483;BME280;18103;52.246;8.052;2023-03-13T14:37:00;98108.91;;;16.07;60.14
31483;BME280;18103;52.246;8.052;2023-03-13T14:42:05;98115.03;;;16.08;58.60
31483;BME280;18103;52.246;8.052;2023-03-13T14:44:34;98099.72;;;15.97;58.97
31483;BME280;18103;52.246;8.052;2023-03-13T14:47:20;98085.34;;;16.04;59.51
31483;BME280;18103;52.246;8.052;2023-03-13T14:49:46;98087.66;;;15.94;60.04
31483;BME280;18103;52.246;8.052;2023-03-13T14:52:22;98099.13;;;15.95;60.32